Time;durP1;ratioP1;P1;durP2;ratioP2;P2;SDS_P1;SDS_P2;PMS_P1;PMS_P2;Temp;Humidity;BMP_temperature;BMP_pressure;BME280_temperature;BME280_humidity;BME280_pressure;Samples;Min_cycle;Max_cycle;Signal;HPM_P1;HPM_P2
2024/02/06 00:02:30;;;;;;;10.00;2.83;;;15.70;79.60;;;;;;4138625;28;20053;-60
2024/02/06 00:05:11;;;;;;;8.98;2.92;;;15.70;79.60;;;;;;4154817;28;20518;-60
2024/02/06 00:07:51;;;;;;;8.18;3.08;;;15.70;79.60;;;;;;4153873;28;20079;-60
2024/02/06 00:10:32;;;;;;;9.85;2.78;;;15.60;79.30;;;;;;4154125;28;20051;-61
2024/02/06 00:13:14;;;;;;;13.55;3.45;;;15.60;79.20;;;;;;4154487;28;20103;-60
2024/02/06 00:15:56;;;;;;;10.85;3.60;;;15.60;79.30;;;;;;4154270;28;20060;-60
2024/02/06 00:18:37;;;;;;;12.85;3.58;;;15.60;79.30;;;;;;4134728;28;20623;-60
2024/02/06 00:21:18;;;;;;;8.98;2.95;;;15.60;79.50;;;;;;4138269;28;20567;-59
2024/02/06 00:24:00;;;;;;;7.57;3.13;;;15.60;79.50;;;;;;4135547;28;20413;-60
2024/02/06 00:26:42;;;;;;;13.52;3.15;;;15.60;79.30;;;;;;4137509;28;20052;-60
2024/02/06 00:29:24;;;;;;;8.50;3.38;;;15.60;79.30;;;;;;4149294;28;20520;-60
2024/02/06 00:32:07;;;;;;;12.07;3.75;;;15.60;80.30;;;;;;4152138;28;20049;-60
2024/02/06 00:34:48;;;;;;;3.28;2.08;;;15.60;79.90;;;;;;4149474;28;20175;-61
2024/02/06 00:37:32;;;;;;;11.48;3.03;;;15.50;79.90;;;;;;4152478;28;20044;-61
2024/02/06 00:40:13;;;;;;;10.65;3.25;;;15.50;80.20;;;;;;4152027;28;20187;-59
2024/02/06 00:42:54;;;;;;;9.25;3.05;;;15.50;80.40;;;;;;4154330;28;20056;-59
2024/02/06 00:45:35;;;;;;;7.72;3.10;;;15.50;80.30;;;;;;4153632;28;20058;-59
2024/02/06 00:48:18;;;;;;;8.95;2.45;;;15.50;80.10;;;;;;4153475;28;20052;-58
2024/02/06 00:50:59;;;;;;;11.00;3.65;;;15.50;80.40;;;;;;4154096;28;20055;-59
2024/02/06 00:53:40;;;;;;;9.60;3.10;;;15.50;80.50;;;;;;4152376;28;20064;-59
2024/02/06 00:56:22;;;;;;;16.08;3.50;;;15.50;81.00;;;;;;4145816;28;20555;-59
2024/02/06 00:59:03;;;;;;;8.68;3.35;;;15.60;80.70;;;;;;4148308;28;20094;-61
2024/02/06 01:01:44;;;;;;;6.97;2.60;;;15.70;80.20;;;;;;4149796;28;20052;-61
2024/02/06 01:04:26;;;;;;;12.10;3.50;;;15.80;79.90;;;;;;4153559;28;20098;-61
2024/02/06 01:07:07;;;;;;;12.80;2.78;;;15.90;79.40;;;;;;4152678;28;20110;-61
2024/02/06 01:09:49;;;;;;;10.80;3.45;;;16.00;78.90;;;;;;4150787;28;20060;-61
2024/02/06 01:12:29;;;;;;;13.75;3.63;;;16.00;78.80;;;;;;4154029;28;20509;-61
2024/02/06 01:15:10;;;;;;;12.68;3.97;;;16.00;78.80;;;;;;4153195;28;20195;-61
2024/02/06 01:17:51;;;;;;;9.68;3.42;;;16.00;78.60;;;;;;4148805;28;20458;-60
2024/02/06 01:20:34;;;;;;;11.18;3.00;;;16.00;78.40;;;;;;4154379;28;20813;-61
2024/02/06 01:23:15;;;;;;;9.05;3.47;;;16.00;78.50;;;;;;4152779;28;20102;-61
2024/02/06 01:25:55;;;;;;;12.35;3.22;;;16.00;78.70;;;;;;4140276;28;20149;-61
2024/02/06 01:28:36;;;;;;;11.07;2.80;;;16.10;78.40;;;;;;4153154;28;20512;-61
2024/02/06 01:31:17;;;;;;;7.78;2.58;;;16.10;78.10;;;;;;4137614;28;20061;-61
2024/02/06 01:33:58;;;;;;;8.02;2.75;;;16.20;77.90;;;;;;4137745;28;20049;-61
2024/02/06 01:36:41;;;;;;;10.60;2.85;;;16.20;77.60;;;;;;4128876;28;20045;-61
2024/02/06 01:39:22;;;;;;;8.52;3.05;;;16.20;77.40;;;;;;4154186;28;20053;-51
2024/02/06 01:42:04;;;;;;;12.15;4.50;;;16.20;77.50;;;;;;4148851;28;20053;-50
2024/02/06 01:44:45;;;;;;;12.45;3.50;;;16.20;77.30;;;;;;4153754;28;20090;-50
2024/02/06 01:47:28;;;;;;;9.38;2.65;;;16.20;77.50;;;;;;4137397;28;20096;-50
2024/02/06 01:50:10;;;;;;;8.75;3.17;;;16.20;77.40;;;;;;4154558;28;20056;-61
2024/02/06 01:52:53;;;;;;;8.35;3.60;;;16.20;77.70;;;;;;4153499;28;20102;-58
2024/02/06 01:55:35;;;;;;;10.38;3.13;;;16.30;77.60;;;;;;4152754;28;20394;-57
2024/02/06 01:58:17;;;;;;;9.15;2.72;;;16.30;77.30;;;;;;4154763;28;20053;-58
2024/02/06 02:00:58;;;;;;;;;;;16.40;76.90;;;;;;4155988;28;20080;-58
2024/02/06 02:03:39;;;;;;;9.70;3.80;;;16.50;76.50;;;;;;4156556;28;20384;-56
2024/02/06 02:06:21;;;;;;;8.65;2.63;;;16.50;76.40;;;;;;4140828;28;20180;-56
2024/02/06 02:09:05;;;;;;;11.18;3.08;;;16.50;76.40;;;;;;4139383;28;20560;-57
2024/02/06 02:11:48;;;;;;;14.52;3.30;;;16.50;76.60;;;;;;4140427;28;20085;-57
2024/02/06 02:14:29;;;;;;;12.40;3.85;;;16.50;76.50;;;;;;4155563;28;20059;-57
2024/02/06 02:17:10;;;;;;;15.10;4.65;;;16.50;76.40;;;;;;4151428;28;20164;-57
2024/02/06 02:19:51;;;;;;;8.75;3.88;;;16.50;76.20;;;;;;4155577;28;20516;-54
2024/02/06 02:22:34;;;;;;;10.15;3.05;;;16.50;76.10;;;;;;4152624;28;20386;-55
2024/02/06 02:25:16;;;;;;;10.27;3.13;;;16.50;76.30;;;;;;4141580;28;20060;-56
2024/02/06 02:27:58;;;;;;;12.20;2.92;;;16.60;75.90;;;;;;4156729;28;20056;-57
2024/02/06 02:30:40;;;;;;;12.00;3.70;;;16.60;75.70;;;;;;4154801;28;20060;-56
2024/02/06 02:33:21;;;;;;;14.88;4.03;;;16.70;75.70;;;;;;4140343;28;20060;-56
2024/02/06 02:36:04;;;;;;;11.93;3.60;;;16.60;75.60;;;;;;4154075;28;20757;-56
2024/02/06 02:38:47;;;;;;;11.20;4.28;;;16.60;75.70;;;;;;4156309;28;20076;-56
2024/02/06 02:41:27;;;;;;;13.48;3.83;;;16.60;75.70;;;;;;4156259;28;20118;-47
2024/02/06 02:44:08;;;;;;;13.77;3.33;;;16.60;75.70;;;;;;4156482;28;20082;-57
2024/02/06 02:46:50;;;;;;;11.27;3.28;;;16.50;75.90;;;;;;4149916;28;20052;-58
2024/02/06 02:49:31;;;;;;;10.45;3.22;;;16.50;76.10;;;;;;4156022;28;20057;-56
2024/02/06 02:52:12;;;;;;;10.43;3.58;;;16.50;76.40;;;;;;4152005;28;20056;-56
2024/02/06 02:54:54;;;;;;;11.77;3.53;;;16.60;76.20;;;;;;4147584;28;20164;-54
2024/02/06 02:57:35;;;;;;;12.80;3.88;;;16.60;76.00;;;;;;4154643;28;20081;-55
2024/02/06 03:00:17;;;;;;;13.30;3.77;;;16.60;75.90;;;;;;4156018;28;20055;-56
2024/02/06 03:02:58;;;;;;;13.13;3.58;;;16.60;75.90;;;;;;4155993;28;20296;-58
2024/02/06 03:05:39;;;;;;;16.80;3.85;;;16.70;75.80;;;;;;4155804;28;20064;-48
2024/02/06 03:08:20;;;;;;;19.63;5.40;;;16.70;75.70;;;;;;4153881;28;20072;-48
2024/02/06 03:11:03;;;;;;;16.00;4.47;;;16.70;75.40;;;;;;4142584;28;20048;-48
2024/02/06 03:13:43;;;;;;;14.30;4.38;;;16.70;75.40;;;;;;4139265;28;20403;-47
2024/02/06 03:16:24;;;;;;;15.95;4.15;;;16.60;76.20;;;;;;4141958;28;20067;-49
2024/02/06 03:19:05;;;;;;;15.27;3.53;;;16.60;75.60;;;;;;4155761;28;20056;-48
2024/02/06 03:21:47;;;;;;;13.38;4.22;;;16.50;75.70;;;;;;4155691;28;20056;-51
2024/02/06 03:24:28;;;;;;;14.82;3.80;;;16.50;75.90;;;;;;4155610;28;20061;-48
2024/02/06 03:27:11;;;;;;;14.57;4.00;;;16.50;76.00;;;;;;4154615;28;20064;-48
2024/02/06 03:29:52;;;;;;;17.88;3.75;;;16.50;76.20;;;;;;4155334;28;20505;-49
2024/02/06 03:32:33;;;;;;;14.48;4.47;;;16.50;76.20;;;;;;4153903;28;20052;-47
2024/02/06 03:35:14;;;;;;;13.30;3.97;;;16.50;76.20;;;;;;4144024;28;20057;-48
2024/02/06 03:37:55;;;;;;;15.27;3.92;;;16.50;76.10;;;;;;4139209;28;20061;-51
2024/02/06 03:40:36;;;;;;;15.30;4.05;;;16.60;75.90;;;;;;4126888;28;20065;-46
2024/02/06 03:43:18;;;;;;;14.18;3.97;;;16.60;75.90;;;;;;4142792;28;20095;-51
2024/02/06 03:45:59;;;;;;;15.45;3.42;;;16.60;75.90;;;;;;4137968;28;20387;-58
2024/02/06 03:48:40;;;;;;;15.30;4.00;;;16.60;75.80;;;;;;4131999;28;20501;-57
2024/02/06 03:51:22;;;;;;;13.63;3.45;;;16.60;75.90;;;;;;4138914;28;20065;-56
2024/02/06 03:54:03;;;;;;;19.92;4.40;;;16.60;75.90;;;;;;4139652;28;20060;-57
2024/02/06 03:56:44;;;;;;;10.50;3.25;;;16.60;75.90;;;;;;4155110;28;20406;-58
2024/02/06 03:59:26;;;;;;;20.90;4.20;;;16.60;75.80;;;;;;4138916;28;20053;-58
2024/02/06 04:02:07;;;;;;;15.55;2.88;;;16.60;75.80;;;;;;4139520;28;20548;-58
2024/02/06 04:04:49;;;;;;;13.05;4.30;;;16.60;75.80;;;;;;4154967;28;20060;-58
2024/02/06 04:07:29;;;;;;;16.30;3.65;;;16.60;75.90;;;;;;4173454;28;20094;-58
2024/02/06 04:10:10;;;;;;;20.70;4.25;;;16.60;76.00;;;;;;4155400;28;20806;-57
2024/02/06 04:12:51;;;;;;;18.92;4.25;;;16.60;75.80;;;;;;4153891;28;20048;-56
2024/02/06 04:15:34;;;;;;;15.07;3.75;;;16.70;75.70;;;;;;4149354;28;20057;-58
2024/02/06 04:18:15;;;;;;;13.18;4.00;;;16.70;75.60;;;;;;4154821;28;20098;-57
2024/02/06 04:20:57;;;;;;;13.88;3.63;;;16.70;75.60;;;;;;4154214;28;20057;-57
2024/02/06 04:23:38;;;;;;;17.58;4.43;;;16.80;75.40;;;;;;4153089;28;20052;-51
2024/02/06 04:26:19;;;;;;;10.30;3.28;;;16.80;75.40;;;;;;4134564;28;20861;-59
2024/02/06 04:29:00;;;;;;;12.65;3.97;;;16.80;75.20;;;;;;4138270;28;20075;-59
2024/02/06 04:31:42;;;;;;;17.52;3.30;;;16.80;75.20;;;;;;4122085;28;20100;-58
2024/02/06 04:34:24;;;;;;;22.42;3.55;;;16.70;75.10;;;;;;4138199;28;20075;-58
2024/02/06 04:37:05;;;;;;;15.73;4.20;;;16.70;75.00;;;;;;4152506;28;20122;-58
2024/02/06 04:39:46;;;;;;;14.15;4.15;;;16.70;75.10;;;;;;4153861;28;20051;-64
2024/02/06 04:42:27;;;;;;;13.63;3.65;;;16.60;75.10;;;;;;4153935;28;20036;-58
2024/02/06 04:45:09;;;;;;;14.35;3.20;;;16.60;75.70;;;;;;4153908;28;20067;-56
2024/02/06 04:47:51;;;;;;;9.43;3.30;;;16.60;75.70;;;;;;4153818;28;20127;-55
2024/02/06 04:50:32;;;;;;;15.02;3.63;;;16.70;75.70;;;;;;4154482;28;20088;-58
2024/02/06 04:53:14;;;;;;;11.25;3.90;;;16.70;75.40;;;;;;4154554;28;20060;-57
2024/02/06 04:55:55;;;;;;;17.73;3.85;;;16.70;75.40;;;;;;4153207;28;20131;-58
2024/02/06 04:58:36;;;;;;;13.13;3.70;;;16.80;75.50;;;;;;4139670;28;20402;-58
2024/02/06 05:01:18;;;;;;;11.35;3.38;;;16.80;75.30;;;;;;4144782;28;20057;-57
2024/02/06 05:04:00;;;;;;;15.88;3.75;;;16.90;74.90;;;;;;4149623;28;20057;-58
2024/02/06 05:06:42;;;;;;;8.10;2.47;;;17.00;74.70;;;;;;4138064;28;20052;-58
2024/02/06 05:09:23;;;;;;;10.10;3.15;;;17.00;74.60;;;;;;4137665;28;20053;-58
2024/02/06 05:12:05;;;;;;;12.95;3.55;;;17.00;74.60;;;;;;4138526;28;20411;-57
2024/02/06 05:14:46;;;;;;;13.75;3.20;;;17.00;74.70;;;;;;4140119;28;20061;-58
2024/02/06 05:17:27;;;;;;;17.75;3.78;;;17.00;74.70;;;;;;4154280;28;20114;-57
2024/02/06 05:20:11;;;;;;;13.65;3.33;;;17.00;74.50;;;;;;4152963;28;20048;-57
2024/02/06 05:22:52;;;;;;;17.20;3.15;;;16.90;74.50;;;;;;4150878;28;20071;-58
2024/02/06 05:25:33;;;;;;;9.02;3.28;;;17.00;74.60;;;;;;4153333;28;20409;-58
2024/02/06 05:28:14;;;;;;;17.40;3.95;;;17.00;74.60;;;;;;4155013;28;20168;-57
2024/02/06 05:30:56;;;;;;;14.27;3.50;;;17.00;74.40;;;;;;4154066;28;20413;-56
2024/02/06 05:33:37;;;;;;;19.98;4.13;;;16.90;74.40;;;;;;4156139;28;20375;-57
2024/02/06 05:36:19;;;;;;;9.98;3.00;;;16.90;74.30;;;;;;4142714;28;20064;-57
2024/02/06 05:39:00;;;;;;;14.82;3.20;;;16.90;74.70;;;;;;4157092;28;20060;-58
2024/02/06 05:41:42;;;;;;;12.43;2.85;;;16.90;74.70;;;;;;4157002;28;20131;-48
2024/02/06 05:44:23;;;;;;;15.85;4.00;;;17.00;74.60;;;;;;4156672;28;20068;-47
2024/02/06 05:47:04;;;;;;;13.98;2.83;;;17.00;74.40;;;;;;4155712;28;20176;-48
2024/02/06 05:49:45;;;;;;;10.27;3.03;;;17.00;74.60;;;;;;4141227;28;20053;-47
2024/02/06 05:52:27;;;;;;;11.02;3.05;;;17.00;74.40;;;;;;4143735;28;20108;-49
2024/02/06 05:55:09;;;;;;;8.70;2.40;;;17.00;74.60;;;;;;4155388;28;20071;-51
2024/02/06 05:57:50;;;;;;;7.95;2.60;;;17.00;74.50;;;;;;4156312;28;20394;-48
2024/02/06 06:00:31;;;;;;;16.42;3.55;;;17.10;74.10;;;;;;4150487;28;20068;-48
2024/02/06 06:03:12;;;;;;;11.20;2.42;;;17.10;74.00;;;;;;4140633;28;20814;-58
2024/02/06 06:05:53;;;;;;;16.00;3.78;;;17.10;74.00;;;;;;4155798;28;20052;-47
2024/02/06 06:08:36;;;;;;;11.20;3.17;;;17.10;74.10;;;;;;4150044;28;20401;-47
2024/02/06 06:11:19;;;;;;;9.57;2.70;;;17.00;74.00;;;;;;4138885;28;20060;-58
2024/02/06 06:14:01;;;;;;;20.17;3.63;;;17.00;74.20;;;;;;4140542;28;20540;-57
2024/02/06 06:16:42;;;;;;;7.50;2.95;;;17.00;74.20;;;;;;4140207;28;20065;-57
2024/02/06 06:19:24;;;;;;;8.48;2.67;;;17.10;74.10;;;;;;4157988;28;20056;-53
2024/02/06 06:22:07;;;;;;;;;;;17.10;74.10;;;;;;4156951;28;20489;-49
2024/02/06 06:24:49;;;;;;;15.77;3.40;;;17.10;74.00;;;;;;4156017;28;20274;-56
2024/02/06 06:27:30;;;;;;;10.55;2.97;;;17.10;73.80;;;;;;4156220;28;20060;-58
2024/02/06 06:30:12;;;;;;;13.57;3.28;;;17.00;73.70;;;;;;4156134;28;20065;-57
2024/02/06 06:32:54;;;;;;;16.58;3.13;;;17.00;73.90;;;;;;4139986;28;20064;-57
2024/02/06 06:35:36;;;;;;;10.57;3.08;;;16.90;74.10;;;;;;4140090;28;20049;-58
2024/02/06 06:38:17;;;;;;;10.02;2.75;;;17.00;74.10;;;;;;4140253;28;20131;-57
2024/02/06 06:41:00;;;;;;;9.63;2.95;;;17.10;74.10;;;;;;4137023;28;20060;-58
2024/02/06 06:43:40;;;;;;;9.90;2.70;;;17.20;74.00;;;;;;4144015;28;20164;-49
2024/02/06 06:46:22;;;;;;;18.25;3.92;;;17.20;73.70;;;;;;4152495;28;20052;-51
2024/02/06 06:49:03;;;;;;;14.27;3.60;;;17.20;74.00;;;;;;4154688;28;20119;-54
2024/02/06 06:51:44;;;;;;;8.77;2.42;;;17.10;73.70;;;;;;4153658;28;20505;-52
2024/02/06 06:54:25;;;;;;;13.65;2.90;;;17.00;73.80;;;;;;4156126;28;20082;-50
2024/02/06 06:57:08;;;;;;;8.07;3.38;;;17.00;73.80;;;;;;4151544;28;20064;-49
2024/02/06 06:59:49;;;;;;;11.15;2.47;;;17.10;74.40;;;;;;4141119;28;20184;-51
2024/02/06 07:02:30;;;;;;;13.80;2.95;;;17.20;74.30;;;;;;4138151;28;20069;-53
2024/02/06 07:05:11;;;;;;;17.02;2.90;;;17.20;74.00;;;;;;4141136;28;20065;-51
2024/02/06 07:07:52;;;;;;;12.50;3.15;;;17.20;73.90;;;;;;4154846;28;20103;-52
2024/02/06 07:10:33;;;;;;;14.57;3.47;;;17.20;73.80;;;;;;4153437;28;20049;-51
2024/02/06 07:13:15;;;;;;;15.90;3.08;;;17.10;74.10;;;;;;4146581;28;20090;-50
2024/02/06 07:15:56;;;;;;;13.55;3.22;;;17.20;74.00;;;;;;4161871;28;20056;-50
2024/02/06 07:18:38;;;;;;;11.43;3.30;;;17.20;73.80;;;;;;4155444;28;20060;-48
2024/02/06 07:21:19;;;;;;;10.40;3.25;;;17.20;73.60;;;;;;4138947;28;20056;-52
2024/02/06 07:24:00;;;;;;;14.57;3.28;;;17.20;73.60;;;;;;4134066;28;20053;-51
2024/02/06 07:26:41;;;;;;;8.15;2.88;;;17.10;73.80;;;;;;4139465;28;20048;-53
2024/02/06 07:29:24;;;;;;;14.40;3.38;;;17.10;74.00;;;;;;4147286;28;20397;-52
2024/02/06 07:32:06;;;;;;;14.63;3.30;;;17.10;74.20;;;;;;4153535;28;20484;-56
2024/02/06 07:34:47;;;;;;;9.27;2.42;;;17.00;74.40;;;;;;4145749;28;20223;-55
2024/02/06 07:37:28;;;;;;;9.77;2.58;;;17.10;73.60;;;;;;4140272;28;20064;-54
2024/02/06 07:40:10;;;;;;;13.45;3.53;;;17.10;73.40;;;;;;4153711;28;20513;-56
2024/02/06 07:42:52;;;;;;;12.15;3.78;;;17.20;73.00;;;;;;4155659;28;20080;-55
2024/02/06 07:45:35;;;;;;;18.40;3.50;;;17.20;72.70;;;;;;4155082;28;20064;-52
2024/02/06 07:48:16;;;;;;;8.80;2.40;;;17.30;72.70;;;;;;4155268;28;20059;-53
2024/02/06 07:50:57;;;;;;;13.63;3.00;;;17.30;72.50;;;;;;4157679;28;20056;-55
2024/02/06 07:53:38;;;;;;;15.20;2.67;;;17.30;72.50;;;;;;4155099;28;20052;-55
2024/02/06 07:56:19;;;;;;;15.75;3.25;;;17.20;72.50;;;;;;4152901;28;20123;-55
2024/02/06 07:59:02;;;;;;;13.52;2.83;;;17.20;72.60;;;;;;4154959;28;20095;-53
2024/02/06 08:01:44;;;;;;;15.90;2.90;;;17.10;72.70;;;;;;4153867;28;20413;-52
2024/02/06 08:04:25;;;;;;;8.60;2.35;;;17.10;73.10;;;;;;4143116;28;20053;-53
2024/02/06 08:07:06;;;;;;;14.65;3.78;;;17.00;72.90;;;;;;4155259;28;20056;-55
2024/02/06 08:09:47;;;;;;;11.93;2.85;;;17.00;73.00;;;;;;4157626;28;20102;-56
2024/02/06 08:12:28;;;;;;;15.18;2.92;;;17.00;73.00;;;;;;4168742;28;20562;-52
2024/02/06 08:15:10;;;;;;;7.47;2.80;;;17.00;73.30;;;;;;4157669;28;20191;-55
2024/02/06 08:17:54;;;;;;;13.52;2.92;;;17.00;73.50;;;;;;4154814;28;20409;-51
2024/02/06 08:20:35;;;;;;;15.35;2.70;;;17.00;73.50;;;;;;4141764;28;20060;-54
2024/02/06 08:23:16;;;;;;;12.63;2.47;;;17.00;73.30;;;;;;4136896;28;20143;-52
2024/02/06 08:25:57;;;;;;;10.25;2.25;;;17.10;73.20;;;;;;4155328;28;20056;-50
2024/02/06 08:28:38;;;;;;;6.13;2.53;;;17.10;73.50;;;;;;4152912;28;20056;-51
2024/02/06 08:31:22;;;;;;;9.02;2.60;;;17.10;73.40;;;;;;4138092;28;20542;-50
2024/02/06 08:34:04;;;;;;;9.85;2.50;;;17.20;73.50;;;;;;4151185;28;20118;-47
2024/02/06 08:36:45;;;;;;;7.05;1.85;;;17.20;73.90;;;;;;4139791;28;20044;-46
2024/02/06 08:39:27;;;;;;;10.75;2.33;;;17.20;73.00;;;;;;4154533;28;20052;-49
2024/02/06 08:42:07;;;;;;;10.68;2.33;;;17.20;72.90;;;;;;4146479;28;20127;-45
2024/02/06 08:44:48;;;;;;;13.02;2.85;;;17.20;73.00;;;;;;4153864;28;20056;-47
2024/02/06 08:47:30;;;;;;;8.27;1.70;;;17.10;73.20;;;;;;4138308;28;20065;-48
2024/02/06 08:50:14;;;;;;;14.43;2.35;;;17.10;73.50;;;;;;4154362;28;20060;-50
2024/02/06 08:52:55;;;;;;;12.13;2.35;;;17.00;73.50;;;;;;4153406;28;20599;-51
2024/02/06 08:55:36;;;;;;;12.85;2.63;;;17.00;74.10;;;;;;4154406;28;20102;-49
2024/02/06 08:58:17;;;;;;;11.55;2.90;;;17.00;74.30;;;;;;4140976;28;20619;-50
2024/02/06 09:00:58;;;;;;;15.00;3.35;;;17.00;74.70;;;;;;4153942;28;20611;-50
2024/02/06 09:03:39;;;;;;;14.05;2.88;;;17.00;74.80;;;;;;4150190;28;20084;-50
2024/02/06 09:06:22;;;;;;;13.00;2.00;;;17.00;74.50;;;;;;4153739;28;20059;-49
2024/02/06 09:09:04;;;;;;;10.90;3.15;;;17.10;74.40;;;;;;4155840;28;20056;-50
2024/02/06 09:11:45;;;;;;;;;;;17.20;73.90;;;;;;4158144;28;20509;-48
2024/02/06 09:14:25;;;;;;;10.52;2.70;;;17.20;73.40;;;;;;4157716;28;20400;-52
2024/02/06 09:17:10;;;;;;;18.58;5.90;;;17.20;73.20;;;;;;4151303;28;20437;-50
2024/02/06 09:19:51;;;;;;;11.88;3.05;;;17.20;73.00;;;;;;4156936;28;20049;-53
2024/02/06 09:22:33;;;;;;;16.27;4.03;;;17.20;73.10;;;;;;4157115;28;20052;-51
2024/02/06 09:25:16;;;;;;;11.70;2.97;;;17.10;73.20;;;;;;4156090;28;20247;-50
2024/02/06 09:27:57;;;;;;;12.57;3.05;;;17.10;73.30;;;;;;4155762;28;20056;-52
2024/02/06 09:30:39;;;;;;;8.05;2.92;;;17.00;73.40;;;;;;4125595;28;20423;-51
2024/02/06 09:33:20;;;;;;;13.23;3.45;;;16.90;73.50;;;;;;4148521;28;20204;-53
2024/02/06 09:36:02;;;;;;;15.98;2.92;;;16.90;73.90;;;;;;4157182;28;20057;-52
2024/02/06 09:38:44;;;;;;;9.70;2.70;;;16.80;74.30;;;;;;4149687;28;20429;-49
2024/02/06 09:41:26;;;;;;;13.23;3.08;;;16.80;74.60;;;;;;4157392;28;20059;-51
2024/02/06 09:44:07;;;;;;;9.80;2.58;;;16.80;74.60;;;;;;4157054;28;20114;-49
2024/02/06 09:46:51;;;;;;;11.98;2.72;;;16.80;74.60;;;;;;4140587;28;20499;-49
2024/02/06 09:49:32;;;;;;;16.15;3.25;;;16.70;74.50;;;;;;4143942;28;20068;-50
2024/02/06 09:52:15;;;;;;;13.20;2.33;;;16.70;74.60;;;;;;4139576;28;20056;-53
2024/02/06 09:55:01;;;;;;;12.10;2.70;;;16.70;74.80;;;;;;4156556;28;20056;-50
2024/02/06 09:57:43;;;;;;;13.85;2.42;;;16.70;75.10;;;;;;4151738;28;20080;-55
2024/02/06 10:00:28;;;;;;;14.95;3.10;;;16.70;75.80;;;;;;4156682;28;20049;-53
2024/02/06 10:03:13;;;;;;;15.52;2.60;;;16.80;74.60;;;;;;4156983;28;20052;-54
2024/02/06 10:05:55;;;;;;;13.40;3.13;;;16.90;74.20;;;;;;4157211;28;20568;-53
2024/02/06 10:08:37;;;;;;;15.43;3.55;;;16.80;74.10;;;;;;4140555;28;20065;-52
2024/02/06 10:11:22;;;;;;;15.63;3.75;;;16.90;74.00;;;;;;4137277;28;20057;-53
2024/02/06 10:14:04;;;;;;;11.43;3.22;;;16.80;74.10;;;;;;4158004;28;20052;-51
2024/02/06 10:16:45;;;;;;;13.88;4.30;;;16.80;74.40;;;;;;4156663;28;20142;-51
2024/02/06 10:19:33;;;;;;;11.73;2.50;;;16.70;74.60;;;;;;4155718;28;20057;-51
2024/02/06 10:22:14;;;;;;;12.35;2.95;;;16.80;74.60;;;;;;4159244;28;20134;-55
2024/02/06 10:25:00;;;;;;;8.95;2.75;;;16.90;74.30;;;;;;4157221;28;20094;-52
2024/02/06 10:27:43;;;;;;;11.38;2.53;;;16.90;74.20;;;;;;4154557;28;20041;-54
2024/02/06 10:30:25;;;;;;;11.55;2.78;;;16.90;74.00;;;;;;4155587;28;20095;-51
2024/02/06 10:33:13;;;;;;;12.98;3.50;;;16.90;73.80;;;;;;4156214;28;20127;-50
2024/02/06 10:36:01;;;;;;;17.77;3.17;;;16.90;73.90;;;;;;4155475;28;20090;-55
2024/02/06 10:38:42;;;;;;;9.63;2.83;;;16.90;73.90;;;;;;4155435;28;20052;-50
2024/02/06 10:41:23;;;;;;;10.73;2.88;;;16.80;74.10;;;;;;4156787;28;20469;-55
2024/02/06 10:44:12;;;;;;;12.85;3.08;;;16.80;74.40;;;;;;4155808;28;20061;-52
2024/02/06 10:46:59;;;;;;;11.07;3.22;;;16.70;74.50;;;;;;4156314;28;20405;-52
2024/02/06 10:49:40;;;;;;;9.07;2.65;;;16.70;74.70;;;;;;4155918;28;20079;-53
2024/02/06 10:52:21;;;;;;;12.25;3.85;;;16.70;75.00;;;;;;4145225;28;20056;-53
2024/02/06 10:55:03;;;;;;;11.20;2.88;;;16.80;75.80;;;;;;4149957;28;20526;-54
2024/02/06 10:57:46;;;;;;;11.52;2.50;;;16.80;74.60;;;;;;4146190;28;20099;-54
2024/02/06 11:00:33;;;;;;;18.75;4.38;;;16.90;74.50;;;;;;4155869;28;20068;-54
2024/02/06 11:03:15;;;;;;;13.18;3.42;;;16.90;74.20;;;;;;4155553;28;20052;-53
2024/02/06 11:06:05;;;;;;;11.05;2.47;;;16.90;74.30;;;;;;4141617;28;20168;-53
2024/02/06 11:08:47;;;;;;;11.32;2.67;;;16.90;74.20;;;;;;4138303;28;20057;-51
2024/02/06 11:11:28;;;;;;;15.60;3.78;;;16.80;75.30;;;;;;4139239;28;20180;-52
2024/02/06 11:14:12;;;;;;;;;;;16.80;74.60;;;;;;4140751;28;20650;-55
2024/02/06 11:16:58;;;;;;;12.82;2.88;;;16.70;74.90;;;;;;4155243;28;19955;-53
2024/02/06 11:19:47;;;;;;;16.10;3.53;;;16.70;75.30;;;;;;4155653;28;20057;-53
2024/02/06 12:11:39;;;;;;;21.15;4.60;;;16.30;77.30;;;;;;1693260;23;20059;-53
2024/02/06 12:14:21;;;;;;;15.48;3.92;;;16.30;77.70;;;;;;4089821;28;20050;-51
2024/02/06 12:17:02;;;;;;;16.23;3.35;;;16.20;77.90;;;;;;4077015;28;20189;-50
2024/02/06 12:19:44;;;;;;;22.63;4.03;;;16.20;78.00;;;;;;4089720;28;20507;-52
2024/02/06 12:22:25;;;;;;;6.82;2.42;;;16.10;78.40;;;;;;4089403;28;20147;-53
2024/02/06 12:25:06;;;;;;;3.78;2.65;;;16.10;78.10;;;;;;4088625;28;20062;-52
2024/02/06 12:28:01;;;;;;;9.95;2.58;;;16.10;78.50;;;;;;4088633;28;20178;-52
2024/02/06 12:30:45;;;;;;;12.30;3.15;;;16.10;78.70;;;;;;4088337;28;20135;-50
2024/02/06 12:33:26;;;;;;;15.18;3.08;;;16.00;78.40;;;;;;4088284;28;20535;-55
2024/02/06 12:36:08;;;;;;;11.82;2.67;;;16.00;78.40;;;;;;4088448;28;20054;-53
2024/02/06 12:38:52;;;;;;;11.82;2.83;;;16.00;78.70;;;;;;4089134;28;20090;-51
2024/02/06 12:41:34;;;;;;;13.13;3.20;;;16.00;79.10;;;;;;4104660;28;20101;-51
2024/02/06 12:44:25;;;;;;;14.10;3.20;;;15.90;79.10;;;;;;4105574;28;20062;-52
2024/02/06 12:47:21;;;;;;;17.48;4.00;;;16.00;79.30;;;;;;4084378;28;20062;-54
2024/02/06 12:50:02;;;;;;;;;;;16.10;78.70;;;;;;4089031;28;20555;-49
2024/02/06 12:52:45;;;;;;;15.43;3.35;;;16.20;78.20;;;;;;4088482;28;20055;-49
2024/02/06 12:55:26;;;;;;;21.55;3.67;;;16.30;77.90;;;;;;4075943;28;20120;-50
2024/02/06 12:58:08;;;;;;;25.30;3.85;;;16.30;78.40;;;;;;4079508;28;20110;-52
2024/02/06 13:00:55;;;;;;;20.25;4.03;;;16.30;77.30;;;;;;4087914;28;20058;-52
2024/02/06 13:03:38;;;;;;;11.77;3.75;;;16.40;77.30;;;;;;4089368;28;20050;-51
2024/02/06 13:06:21;;;;;;;12.52;3.13;;;16.40;77.20;;;;;;4087987;28;20138;-50
2024/02/06 13:09:02;;;;;;;16.75;4.20;;;16.40;77.10;;;;;;4099131;28;20165;-48
2024/02/06 13:11:43;;;;;;;12.05;2.40;;;16.50;77.10;;;;;;4088545;28;20062;-48
2024/02/06 13:14:24;;;;;;;11.52;2.90;;;16.50;76.90;;;;;;4088169;28;20389;-49
2024/02/06 13:17:11;;;;;;;13.50;2.95;;;16.50;76.80;;;;;;4075472;28;20062;-49
2024/02/06 13:20:05;;;;;;;14.13;3.03;;;16.50;76.70;;;;;;4094294;28;20054;-49
2024/02/06 13:22:48;;;;;;;18.42;3.80;;;16.50;76.40;;;;;;4087512;28;20416;-49
2024/02/06 13:25:29;;;;;;;12.82;3.38;;;16.50;76.50;;;;;;4093618;28;20062;-50
2024/02/06 13:28:11;;;;;;;9.95;2.88;;;16.60;76.50;;;;;;4087544;28;20137;-50
2024/02/06 13:30:52;;;;;;;12.07;2.83;;;16.50;76.50;;;;;;4092969;28;20061;-50
2024/02/06 13:33:35;;;;;;;13.82;3.97;;;16.50;77.60;;;;;;4093225;28;20882;-52
2024/02/06 13:36:16;;;;;;;7.70;2.83;;;16.50;76.70;;;;;;4093432;28;20496;-52
2024/02/06 13:38:57;;;;;;;15.48;3.45;;;16.60;76.40;;;;;;4089448;28;20062;-48
2024/02/06 13:41:39;;;;;;;11.18;3.15;;;16.60;76.20;;;;;;4104125;28;20057;-49
2024/02/06 13:44:20;;;;;;;19.20;3.38;;;16.60;76.10;;;;;;4104766;28;20053;-53
2024/02/06 13:47:02;;;;;;;13.60;3.22;;;16.60;76.00;;;;;;4099948;28;20515;-52
2024/02/06 13:49:44;;;;;;;11.77;2.65;;;16.60;76.10;;;;;;4098510;28;20042;-50
2024/02/06 13:52:25;;;;;;;7.93;2.85;;;16.60;76.20;;;;;;4088259;28;20519;-49
2024/02/06 13:55:07;;;;;;;13.00;3.05;;;16.60;76.30;;;;;;4078262;29;20050;-52
2024/02/06 13:57:50;;;;;;;12.50;3.45;;;16.50;76.20;;;;;;4091679;28;20393;-51
2024/02/06 14:00:31;;;;;;;9.27;3.33;;;16.50;76.40;;;;;;4092020;28;20062;-51
2024/02/06 14:03:12;;;;;;;;;;;16.40;76.70;;;;;;4092784;28;20483;-49
2024/02/06 14:05:55;;;;;;;6.67;2.33;;;16.40;77.00;;;;;;4106207;28;19929;-52
2024/02/06 14:08:36;;;;;;;12.57;2.75;;;16.30;77.30;;;;;;4107768;28;20438;-51
2024/02/06 14:11:17;;;;;;;23.67;4.13;;;16.30;77.50;;;;;;4107009;28;20067;-52
2024/02/06 14:13:58;;;;;;;12.23;3.28;;;16.20;77.80;;;;;;4075523;29;20062;-54
2024/02/06 14:16:40;;;;;;;;;;;16.20;78.10;;;;;;4075864;29;20424;-51
2024/02/06 14:19:21;;;;;;;13.95;3.13;;;16.10;78.30;;;;;;4075236;29;20009;-50
2024/02/06 14:22:04;;;;;;;18.58;3.40;;;16.00;78.40;;;;;;4082581;28;20054;-53
2024/02/06 14:24:45;;;;;;;15.52;2.95;;;16.00;78.80;;;;;;4090540;28;20056;-53
2024/02/06 14:27:26;;;;;;;10.60;2.72;;;16.00;79.00;;;;;;4091387;28;20145;-51
2024/02/06 14:30:08;;;;;;;8.98;2.90;;;16.00;79.20;;;;;;4080305;28;20058;-49
2024/02/06 14:32:49;;;;;;;11.82;2.70;;;15.90;79.40;;;;;;4079571;28;20180;-48
2024/02/06 14:35:30;;;;;;;13.30;3.03;;;15.90;79.50;;;;;;4073812;29;20452;-53
2024/02/06 14:38:15;;;;;;;18.35;3.05;;;15.80;79.70;;;;;;4074241;29;20226;-51
2024/02/06 14:40:56;;;;;;;8.50;3.13;;;15.80;79.80;;;;;;4077809;28;20058;-49
2024/02/06 14:43:37;;;;;;;4.78;2.00;;;15.80;80.10;;;;;;4090441;28;20058;-53
2024/02/06 14:46:18;;;;;;;8.40;3.03;;;15.80;80.30;;;;;;4078597;28;20082;-52